Time,TemperatureF,DewpointF,PressureIn,WindDirection,WindDirectionDegrees,WindSpeedMPH,WindSpeedGustMPH,Humidity,HourlyPrecipIn,Conditions,Clouds,dailyrainin,SoftwareType,DateUTC
2013-10-09 00:13:00,54.0,47.0,30.17,ESE,106,0.0,2.0,76,0.00,,,0.00,,2013-10-09 05:13:00,
2013-10-09 00:22:00,54.0,47.0,30.17,ESE,106,0.0,2.0,76,0.00,,,0.00,,2013-10-09 05:22:00,
2013-10-09 00:52:00,53.0,46.0,30.16,ESE,108,0.0,2.0,78,0.00,,,0.00,,2013-10-09 05:52:00,
2013-10-09 01:12:00,53.0,47.0,30.16,ESE,103,1.0,3.0,79,0.00,,,0.00,,2013-10-09 06:12:00,
2013-10-09 01:22:00,53.0,47.0,30.16,ESE,103,1.0,3.0,79,0.00,,,0.00,,2013-10-09 06:22:00,
2013-10-09 01:42:00,53.0,47.0,30.16,East,87,1.0,5.0,79,0.00,,,0.00,,2013-10-09 06:42:00,
2013-10-09 01:52:00,53.0,47.0,30.16,East,87,1.0,5.0,79,0.00,,,0.00,,2013-10-09 06:52:00,
2013-10-09 02:12:00,52.0,46.0,30.16,East,91,1.0,6.0,79,0.00,,,0.00,,2013-10-09 07:12:00,
2013-10-09 02:22:00,52.0,46.0,30.16,East,91,1.0,6.0,79,0.00,,,0.00,,2013-10-09 07:22:00,
2013-10-09 02:42:00,51.0,45.0,30.16,East,95,0.0,3.0,80,0.00,,,0.00,,2013-10-09 07:42:00,
2013-10-09 02:52:00,51.0,45.0,30.16,East,95,0.0,3.0,80,0.00,,,0.00,,2013-10-09 07:52:00,
2013-10-09 03:12:00,51.0,45.0,30.15,East,98,1.0,5.0,81,0.00,,,0.00,,2013-10-09 08:12:00,
2013-10-09 03:23:00,51.0,45.0,30.15,East,98,1.0,5.0,81,0.00,,,0.00,,2013-10-09 08:23:00,
2013-10-09 03:42:00,51.0,45.0,30.15,ESE,104,1.0,3.0,81,0.00,,,0.00,,2013-10-09 08:42:00,
2013-10-09 03:53:00,50.0,44.0,30.15,ESE,105,1.0,5.0,81,0.00,,,0.00,,2013-10-09 08:53:00,
2013-10-09 04:02:00,50.0,44.0,30.15,ESE,105,1.0,5.0,81,0.00,,,0.00,,2013-10-09 09:02:00,
2013-10-09 04:22:00,50.0,44.0,30.16,ESE,106,0.0,1.0,81,0.00,,,0.00,,2013-10-09 09:22:00,
2013-10-09 04:33:00,50.0,44.0,30.16,ESE,106,0.0,1.0,81,0.00,,,0.00,,2013-10-09 09:33:00,
2013-10-09 04:43:00,50.0,44.0,30.16,ESE,106,0.0,1.0,81,0.00,,,0.00,,2013-10-09 09:43:00,
2013-10-09 04:53:00,49.0,44.0,30.17,ESE,106,1.0,4.0,83,0.00,,,0.00,,2013-10-09 09:53:00,
2013-10-09 05:03:00,49.0,44.0,30.17,ESE,106,1.0,4.0,83,0.00,,,0.00,,2013-10-09 10:03:00,
2013-10-09 05:13:00,49.0,44.0,30.17,ESE,106,1.0,4.0,83,0.00,,,0.00,,2013-10-09 10:13:00,
2013-10-09 05:23:00,50.0,45.0,30.17,East,98,1.0,5.0,83,0.00,,,0.00,,2013-10-09 10:23:00,
2013-10-09 05:32:00,50.0,45.0,30.17,East,98,1.0,5.0,83,0.00,,,0.00,,2013-10-09 10:32:00,
2013-10-09 05:43:00,50.0,45.0,30.17,East,98,1.0,5.0,83,0.00,,,0.00,,2013-10-09 10:43:00,
2013-10-09 05:53:00,50.0,45.0,30.17,East,98,1.0,5.0,83,0.00,,,0.00,,2013-10-09 10:53:00,
2013-10-09 06:22:00,50.0,44.0,30.19,East,97,0.0,2.0,80,0.00,,,0.00,,2013-10-09 11:22:00,
2013-10-09 06:33:00,50.0,44.0,30.19,East,97,0.0,2.0,80,0.00,,,0.00,,2013-10-09 11:33:00,
2013-10-09 06:52:00,50.0,44.0,30.19,East,97,0.0,2.0,80,0.00,,,0.00,,2013-10-09 11:52:00,
2013-10-09 07:12:00,50.0,44.0,30.19,ENE,70,0.0,1.0,79,0.00,,,0.00,,2013-10-09 12:12:00,
2013-10-09 07:22:00,50.0,44.0,30.19,ENE,70,0.0,1.0,79,0.00,,,0.00,,2013-10-09 12:22:00,
2013-10-09 07:32:00,50.0,44.0,30.19,ENE,70,0.0,1.0,79,0.00,,,0.00,,2013-10-09 12:32:00,
2013-10-09 08:11:00,47.0,43.0,30.21,ENE,70,0.0,1.0,86,0.00,,,0.00,,2013-10-09 13:11:00,
2013-10-09 08:22:00,47.0,43.0,30.21,ENE,70,0.0,1.0,86,0.00,,,0.00,,2013-10-09 13:22:00,
2013-10-09 08:42:00,51.0,47.0,30.22,East,89,2.0,4.0,85,0.00,,,0.00,,2013-10-09 13:42:00,
2013-10-09 08:52:00,51.0,47.0,30.22,East,89,2.0,4.0,85,0.00,,,0.00,,2013-10-09 13:52:00,
2013-10-09 09:11:00,56.0,47.0,30.22,East,81,1.0,7.0,72,0.00,,,0.00,,2013-10-09 14:11:00,
2013-10-09 09:22:00,56.0,47.0,30.22,East,81,1.0,7.0,72,0.00,,,0.00,,2013-10-09 14:22:00,
2013-10-09 09:42:00,58.0,48.0,30.21,ESE,106,0.0,5.0,69,0.00,,,0.00,,2013-10-09 14:42:00,
2013-10-09 09:52:00,58.0,48.0,30.21,ESE,106,0.0,5.0,69,0.00,,,0.00,,2013-10-09 14:52:00,
2013-10-09 10:11:00,60.0,49.0,30.22,ESE,107,0.0,6.0,68,0.00,,,0.00,,2013-10-09 15:11:00,
2013-10-09 10:22:00,60.0,49.0,30.22,ESE,107,0.0,6.0,68,0.00,,,0.00,,2013-10-09 15:22:00,
2013-10-09 10:53:00,62.0,50.0,30.22,East,83,2.0,4.0,65,0.00,,,0.00,,2013-10-09 15:53:00,
2013-10-09 11:13:00,65.0,50.0,30.21,East,98,2.0,4.0,59,0.00,,,0.00,,2013-10-09 16:13:00,
2013-10-09 11:24:00,65.0,50.0,30.21,East,98,2.0,4.0,59,0.00,,,0.00,,2013-10-09 16:24:00,
2013-10-09 11:42:00,66.0,51.0,30.21,SSE,156,0.0,3.0,58,0.00,,,0.00,,2013-10-09 16:42:00,
2013-10-09 11:53:00,66.0,51.0,30.21,SSE,156,0.0,3.0,58,0.00,,,0.00,,2013-10-09 16:53:00,
2013-10-09 12:03:00,66.0,51.0,30.21,SSE,156,0.0,3.0,58,0.00,,,0.00,,2013-10-09 17:03:00,
2013-10-09 12:23:00,69.0,49.0,30.19,SE,130,1.0,9.0,49,0.00,,,0.00,,2013-10-09 17:23:00,
2013-10-09 12:33:00,69.0,49.0,30.19,SE,130,1.0,9.0,49,0.00,,,0.00,,2013-10-09 17:33:00,
2013-10-09 12:42:00,69.0,49.0,30.19,SE,130,1.0,9.0,49,0.00,,,0.00,,2013-10-09 17:42:00,
2013-10-09 12:52:00,71.0,50.0,30.18,ESE,104,0.0,6.0,48,0.00,,,0.00,,2013-10-09 17:52:00,
2013-10-09 13:02:00,71.0,50.0,30.18,ESE,104,0.0,6.0,48,0.00,,,0.00,,2013-10-09 18:02:00,
2013-10-09 13:12:00,71.0,50.0,30.18,ESE,104,0.0,6.0,48,0.00,,,0.00,,2013-10-09 18:12:00,
2013-10-09 13:22:00,72.0,49.0,30.17,ENE,73,4.0,8.0,45,0.00,,,0.00,,2013-10-09 18:22:00,
2013-10-09 13:32:00,72.0,49.0,30.17,ENE,73,4.0,8.0,45,0.00,,,0.00,,2013-10-09 18:32:00,
2013-10-09 13:42:00,72.0,49.0,30.17,ENE,73,4.0,8.0,45,0.00,,,0.00,,2013-10-09 18:42:00,
2013-10-09 13:52:00,72.0,49.0,30.17,ENE,73,4.0,8.0,45,0.00,,,0.00,,2013-10-09 18:52:00,
2013-10-09 14:11:00,73.0,50.0,30.16,SE,136,2.0,9.0,44,0.00,,,0.00,,2013-10-09 19:11:00,
2013-10-09 14:22:00,73.0,50.0,30.16,SE,136,2.0,9.0,44,0.00,,,0.00,,2013-10-09 19:22:00,
2013-10-09 14:42:00,73.0,49.0,30.15,East,92,1.0,9.0,43,0.00,,,0.00,,2013-10-09 19:42:00,
2013-10-09 14:53:00,73.0,49.0,30.15,East,92,1.0,9.0,43,0.00,,,0.00,,2013-10-09 19:53:00,
2013-10-09 15:11:00,74.0,49.0,30.14,SSW,200,3.0,8.0,42,0.00,,,0.00,,2013-10-09 20:11:00,
2013-10-09 15:22:00,74.0,49.0,30.14,SSW,200,3.0,8.0,42,0.00,,,0.00,,2013-10-09 20:22:00,
2013-10-09 15:43:00,74.0,49.0,30.13,SE,142,1.0,8.0,42,0.00,,,0.00,,2013-10-09 20:43:00,
2013-10-09 15:52:00,74.0,49.0,30.13,SE,142,1.0,8.0,42,0.00,,,0.00,,2013-10-09 20:52:00,
2013-10-09 16:11:00,75.0,48.0,30.13,SE,139,2.0,9.0,38,0.00,,,0.00,,2013-10-09 21:11:00,
2013-10-09 16:22:00,75.0,48.0,30.13,SE,139,2.0,9.0,38,0.00,,,0.00,,2013-10-09 21:22:00,
2013-10-09 16:44:00,75.0,48.0,30.12,SW,222,1.0,7.0,38,0.00,,,0.00,,2013-10-09 21:44:00,
2013-10-09 16:54:00,75.0,48.0,30.12,SW,222,1.0,7.0,38,0.00,,,0.00,,2013-10-09 21:54:00,
2013-10-09 17:13:00,75.0,48.0,30.12,ESE,119,0.0,3.0,39,0.00,,,0.00,,2013-10-09 22:13:00,
2013-10-09 17:24:00,75.0,48.0,30.12,ESE,119,0.0,3.0,39,0.00,,,0.00,,2013-10-09 22:24:00,
2013-10-09 17:43:00,75.0,48.0,30.12,SSE,168,1.0,3.0,39,0.00,,,0.00,,2013-10-09 22:43:00,
2013-10-09 17:53:00,75.0,48.0,30.12,SSE,168,1.0,3.0,39,0.00,,,0.00,,2013-10-09 22:53:00,
2013-10-09 18:12:00,74.0,50.0,30.11,SSE,149,0.0,2.0,43,0.00,,,0.00,,2013-10-09 23:12:00,
2013-10-09 18:22:00,74.0,50.0,30.11,SSE,149,0.0,2.0,43,0.00,,,0.00,,2013-10-09 23:22:00,
2013-10-09 18:34:00,74.0,50.0,30.11,SSE,149,0.0,2.0,43,0.00,,,0.00,,2013-10-09 23:34:00,
2013-10-09 19:12:00,68.0,50.0,30.11,SSE,149,0.0,1.0,52,0.00,,,0.00,,2013-10-10 00:12:00,
2013-10-09 19:22:00,68.0,50.0,30.11,SSE,149,0.0,1.0,52,0.00,,,0.00,,2013-10-10 00:22:00,
2013-10-09 19:42:00,65.0,49.0,30.12,SSE,149,0.0,0.0,56,0.00,,,0.00,,2013-10-10 00:42:00,
2013-10-09 19:52:00,65.0,49.0,30.12,SSE,149,0.0,0.0,56,0.00,,,0.00,,2013-10-10 00:52:00,
2013-10-09 20:11:00,64.0,49.0,30.12,East,91,0.0,1.0,59,0.00,,,0.00,,2013-10-10 01:11:00,
2013-10-09 20:21:00,63.0,50.0,30.13,East,91,0.0,1.0,62,0.00,,,0.00,,2013-10-10 01:21:00,
2013-10-09 20:32:00,63.0,50.0,30.13,East,91,0.0,1.0,62,0.00,,,0.00,,2013-10-10 01:32:00,
2013-10-09 20:42:00,63.0,50.0,30.13,East,91,0.0,1.0,62,0.00,,,0.00,,2013-10-10 01:42:00,
2013-10-09 20:52:00,63.0,50.0,30.13,East,91,0.0,1.0,62,0.00,,,0.00,,2013-10-10 01:52:00,
2013-10-09 21:12:00,62.0,51.0,30.13,East,91,0.0,1.0,66,0.00,,,0.00,,2013-10-10 02:12:00,
2013-10-09 21:22:00,60.0,50.0,30.13,East,91,0.0,2.0,70,0.00,,,0.00,,2013-10-10 02:22:00,
2013-10-09 21:33:00,60.0,50.0,30.13,East,91,0.0,2.0,70,0.00,,,0.00,,2013-10-10 02:33:00,
2013-10-09 21:42:00,60.0,50.0,30.13,East,91,0.0,2.0,70,0.00,,,0.00,,2013-10-10 02:42:00,
2013-10-09 22:12:00,60.0,51.0,30.14,East,91,0.0,2.0,72,0.00,,,0.00,,2013-10-10 03:12:00,
2013-10-09 22:22:00,60.0,51.0,30.14,East,91,0.0,2.0,72,0.00,,,0.00,,2013-10-10 03:22:00,
2013-10-09 22:44:00,60.0,51.0,30.14,East,91,1.0,3.0,73,0.00,,,0.00,,2013-10-10 03:44:00,
2013-10-09 22:55:00,60.0,51.0,30.14,East,91,1.0,3.0,73,0.00,,,0.00,,2013-10-10 03:55:00,
2013-10-09 23:13:00,59.0,50.0,30.14,East,91,0.0,2.0,73,0.00,,,0.00,,2013-10-10 04:13:00,
2013-10-09 23:24:00,59.0,50.0,30.14,East,91,0.0,2.0,73,0.00,,,0.00,,2013-10-10 04:24:00,
2013-10-09 23:54:00,58.0,51.0,30.14,East,91,0.0,3.0,78,0.00,,,0.00,,2013-10-10 04:54:00,